Time;durP1;ratioP1;P1;durP2;ratioP2;P2;SDS_P1;SDS_P2;PMS_P1;PMS_P2;Temp;Humidity;BMP_temperature;BMP_pressure;BME280_temperature;BME280_humidity;BME280_pressure;Samples;Min_cycle;Max_cycle;Signal;HPM_P1;HPM_P2
2022/01/15 00:01:34;;;;;;;19.98;8.10;;;;;;;;;;5073249;28;20481;-86
2022/01/15 00:04:00;;;;;;;22.27;9.07;;;;;;;;;;5072328;28;20080;-86
2022/01/15 00:06:27;;;;;;;20.40;8.38;;;;;;;;;;5073340;28;20052;-86
2022/01/15 00:08:53;;;;;;;20.17;8.68;;;;;;;;;;5073427;28;20139;-87
2022/01/15 00:11:19;;;;;;;16.83;8.20;;;;;;;;;;5077546;28;20061;-84
2022/01/15 00:13:53;;;;;;;19.23;8.55;;;;;;;;;;5086126;28;20049;-86
2022/01/15 00:16:45;;;;;;;18.95;8.10;;;;;;;;;;5082614;28;20063;-87
2022/01/15 00:19:13;;;;;;;16.92;7.53;;;;;;;;;;5087363;28;20147;-86
2022/01/15 00:21:39;;;;;;;16.60;7.15;;;;;;;;;;5078366;28;20080;-84
2022/01/15 00:24:07;;;;;;;14.23;6.53;;;;;;;;;;5075146;28;20044;-85
2022/01/15 00:26:33;;;;;;;16.40;7.38;;;;;;;;;;5073787;28;20048;-84
2022/01/15 00:28:59;;;;;;;;;;;;;;;;;;5074402;28;20044;-85
2022/01/15 00:31:25;;;;;;;18.85;8.05;;;;;;;;;;5073071;28;20280;-84
2022/01/15 00:33:51;;;;;;;16.67;6.78;;;;;;;;;;5073100;28;20040;-86
2022/01/15 00:36:18;;;;;;;19.80;7.07;;;;;;;;;;5073265;28;20515;-87
2022/01/15 00:38:44;;;;;;;15.52;6.35;;;;;;;;;;5073029;28;20115;-86
2022/01/15 00:41:10;;;;;;;14.88;5.93;;;;;;;;;;5071807;28;20481;-86
2022/01/15 00:43:36;;;;;;;14.23;6.15;;;;;;;;;;5071570;28;20551;-85
2022/01/15 00:46:02;;;;;;;14.35;5.70;;;;;;;;;;5071748;28;20133;-86
2022/01/15 00:48:28;;;;;;;16.13;5.65;;;;;;;;;;5073239;28;20384;-86
2022/01/15 00:50:54;;;;;;;14.50;6.35;;;;;;;;;;5073838;28;20079;-86
2022/01/15 00:53:20;;;;;;;14.27;5.80;;;;;;;;;;5073877;28;20128;-88
2022/01/15 00:55:46;;;;;;;13.05;5.80;;;;;;;;;;5073832;28;20422;-85
2022/01/15 00:58:13;;;;;;;15.13;5.90;;;;;;;;;;5073481;28;20123;-85
2022/01/15 01:00:39;;;;;;;16.67;6.22;;;;;;;;;;5072808;28;20132;-85
2022/01/15 01:03:05;;;;;;;13.25;5.60;;;;;;;;;;5072840;28;20044;-85
2022/01/15 01:05:31;;;;;;;12.32;4.38;;;;;;;;;;5074633;28;20047;-86
2022/01/15 01:07:57;;;;;;;13.65;4.50;;;;;;;;;;5076471;28;20136;-86
2022/01/15 01:13:39;;;;;;;12.65;4.20;;;;;;;;;;5116911;28;20506;-86
2022/01/15 01:24:15;;;;;;;11.23;3.75;;;;;;;;;;5133506;27;20044;-87
2022/01/15 01:27:01;;;;;;;10.57;4.03;;;;;;;;;;5116578;28;20126;-88
2022/01/15 01:32:32;;;;;;;10.32;3.38;;;;;;;;;;5117251;28;20048;-89
2022/01/15 01:35:06;;;;;;;11.27;3.50;;;;;;;;;;5115876;28;20130;-87
2022/01/15 01:37:37;;;;;;;10.50;3.22;;;;;;;;;;5133414;27;20054;-85
2022/01/15 01:40:26;;;;;;;13.05;3.63;;;;;;;;;;5116413;28;20548;-86
2022/01/15 01:43:05;;;;;;;10.70;2.80;;;;;;;;;;5102199;28;20035;-87
2022/01/15 01:45:31;;;;;;;12.45;3.60;;;;;;;;;;5116979;28;20175;-86
2022/01/15 01:47:58;;;;;;;11.30;3.13;;;;;;;;;;5097831;28;20383;-88
2022/01/15 01:50:26;;;;;;;8.55;2.60;;;;;;;;;;5098806;28;20077;-87
2022/01/15 01:52:56;;;;;;;10.00;2.55;;;;;;;;;;5116185;28;20096;-89
2022/01/15 01:55:23;;;;;;;8.70;2.40;;;;;;;;;;5116492;28;20043;-84
2022/01/15 01:57:50;;;;;;;7.22;2.20;;;;;;;;;;5116046;28;20040;-85
2022/01/15 02:00:18;;;;;;;7.95;2.20;;;;;;;;;;5098010;28;20142;-84
2022/01/15 02:02:45;;;;;;;8.68;2.47;;;;;;;;;;5116012;28;20047;-86
2022/01/15 02:05:11;;;;;;;9.02;2.25;;;;;;;;;;5118736;28;20043;-86
2022/01/15 02:07:38;;;;;;;;;;;;;;;;;;5128085;28;20059;-85
2022/01/15 02:10:23;;;;;;;7.95;2.47;;;;;;;;;;5129563;28;19927;-86
2022/01/15 02:13:11;;;;;;;9.70;2.30;;;;;;;;;;5131591;28;20478;-86
2022/01/15 02:15:37;;;;;;;9.40;2.60;;;;;;;;;;5140032;27;20391;-85
2022/01/15 02:18:03;;;;;;;7.95;2.22;;;;;;;;;;5123160;28;20035;-86
2022/01/15 02:25:54;;;;;;;9.90;2.55;;;;;;;;;;5115434;28;20130;-85
2022/01/15 02:28:22;;;;;;;12.80;3.35;;;;;;;;;;5097314;28;20426;-87
2022/01/15 02:30:51;;;;;;;11.07;3.17;;;;;;;;;;5115428;28;20130;-88
2022/01/15 02:33:17;;;;;;;9.35;2.97;;;;;;;;;;5115476;28;20093;-87
2022/01/15 02:35:43;;;;;;;8.82;3.15;;;;;;;;;;5115398;28;20093;-87
2022/01/15 02:38:11;;;;;;;11.15;3.20;;;;;;;;;;5098082;28;20455;-86
2022/01/15 02:40:37;;;;;;;10.32;3.08;;;;;;;;;;5097628;28;20101;-86
2022/01/15 02:43:04;;;;;;;9.95;3.00;;;;;;;;;;5097048;28;20055;-86
2022/01/15 02:45:33;;;;;;;10.05;3.10;;;;;;;;;;5097026;28;20040;-88
2022/01/15 02:48:15;;;;;;;11.68;3.47;;;;;;;;;;5114896;28;20047;-87
2022/01/15 02:50:42;;;;;;;11.98;3.45;;;;;;;;;;5097341;28;20142;-86
2022/01/15 02:53:09;;;;;;;11.13;3.78;;;;;;;;;;5096911;28;20048;-87
2022/01/15 02:55:35;;;;;;;14.18;3.67;;;;;;;;;;5115232;28;20050;-87
2022/01/15 02:58:01;;;;;;;10.40;4.13;;;;;;;;;;5114850;28;20044;-87
2022/01/15 03:00:28;;;;;;;10.93;3.97;;;;;;;;;;5114832;28;20047;-87
2022/01/15 03:02:54;;;;;;;11.63;4.07;;;;;;;;;;5096609;28;20483;-87
2022/01/15 03:05:20;;;;;;;10.60;3.80;;;;;;;;;;5096856;28;20058;-87
2022/01/15 03:07:46;;;;;;;12.55;3.47;;;;;;;;;;5113460;28;20050;-87
2022/01/15 03:10:12;;;;;;;11.48;3.40;;;;;;;;;;5096651;28;20050;-88
2022/01/15 03:12:39;;;;;;;12.38;3.10;;;;;;;;;;5092661;28;20073;-86
2022/01/15 03:15:06;;;;;;;9.18;3.05;;;;;;;;;;5094192;28;20040;-86
2022/01/15 03:17:33;;;;;;;11.68;3.50;;;;;;;;;;5093247;28;20052;-85
2022/01/15 03:19:59;;;;;;;9.23;2.80;;;;;;;;;;5093139;28;20036;-85
2022/01/15 03:22:25;;;;;;;;;;;;;;;;;;5094208;28;20052;-87
2022/01/15 03:24:51;;;;;;;10.00;3.13;;;;;;;;;;5094309;28;19920;-87
2022/01/15 03:27:21;;;;;;;12.57;3.78;;;;;;;;;;5093038;28;20101;-87
2022/01/15 03:29:47;;;;;;;11.93;3.53;;;;;;;;;;5094015;28;20152;-83
2022/01/15 03:32:13;;;;;;;11.43;3.60;;;;;;;;;;5093928;28;20048;-86
2022/01/15 03:34:39;;;;;;;9.90;3.47;;;;;;;;;;5094191;28;20048;-87
2022/01/15 03:37:05;;;;;;;11.10;3.70;;;;;;;;;;5093940;28;20044;-88
2022/01/15 03:39:31;;;;;;;11.98;3.47;;;;;;;;;;5093842;28;20128;-86
2022/01/15 03:41:57;;;;;;;11.73;3.53;;;;;;;;;;5092572;28;20052;-86
2022/01/15 03:44:23;;;;;;;10.55;3.53;;;;;;;;;;5094461;28;20426;-88
2022/01/15 03:46:49;;;;;;;12.02;3.30;;;;;;;;;;5127446;27;20044;-84
2022/01/15 03:49:15;;;;;;;11.38;3.55;;;;;;;;;;5094251;28;20043;-85
2022/01/15 03:51:41;;;;;;;11.35;3.30;;;;;;;;;;5094173;28;20048;-85
2022/01/15 03:54:07;;;;;;;10.40;2.90;;;;;;;;;;5093643;28;20052;-85
2022/01/15 03:56:33;;;;;;;10.98;2.88;;;;;;;;;;5092657;28;20051;-85
2022/01/15 03:58:59;;;;;;;13.70;3.08;;;;;;;;;;5093733;28;20097;-85
2022/01/15 04:01:25;;;;;;;10.02;3.03;;;;;;;;;;5094311;28;20048;-85
2022/01/15 04:03:51;;;;;;;12.00;3.72;;;;;;;;;;5099516;28;20075;-84
2022/01/15 04:06:18;;;;;;;10.40;3.03;;;;;;;;;;5111377;28;20052;-85
2022/01/15 04:08:44;;;;;;;13.30;3.40;;;;;;;;;;5139156;28;20065;-85
2022/01/15 04:11:10;;;;;;;12.48;3.70;;;;;;;;;;5102966;28;20064;-85
2022/01/15 04:13:36;;;;;;;13.43;4.07;;;;;;;;;;5129987;28;20048;-84
2022/01/15 04:16:02;;;;;;;10.07;3.47;;;;;;;;;;5093436;28;20043;-84
2022/01/15 04:18:35;;;;;;;12.15;3.95;;;;;;;;;;5094060;28;20040;-86
2022/01/15 04:21:01;;;;;;;12.90;4.20;;;;;;;;;;5093225;28;20488;-85
2022/01/15 04:23:27;;;;;;;12.85;4.15;;;;;;;;;;5093388;28;20158;-85
2022/01/15 04:25:53;;;;;;;13.07;4.05;;;;;;;;;;5093523;28;20047;-85
2022/01/15 04:28:20;;;;;;;13.30;4.43;;;;;;;;;;5092214;28;20153;-85
2022/01/15 04:30:48;;;;;;;13.50;4.75;;;;;;;;;;5092937;28;20369;-86
2022/01/15 04:33:14;;;;;;;10.88;4.07;;;;;;;;;;5093104;28;20054;-86
2022/01/15 04:35:40;;;;;;;10.50;3.83;;;;;;;;;;5126301;28;20101;-84
2022/01/15 04:38:10;;;;;;;12.48;4.55;;;;;;;;;;5092144;28;20551;-83
2022/01/15 04:40:37;;;;;;;13.80;4.68;;;;;;;;;;5095821;28;20048;-84
2022/01/15 04:43:04;;;;;;;13.93;4.72;;;;;;;;;;5097375;28;20130;-84
2022/01/15 04:45:30;;;;;;;12.10;4.65;;;;;;;;;;5097061;28;20503;-84
2022/01/15 04:47:57;;;;;;;14.45;4.50;;;;;;;;;;5097097;28;20054;-83
2022/01/15 04:50:23;;;;;;;13.30;4.70;;;;;;;;;;5096832;28;20044;-86
2022/01/15 04:52:49;;;;;;;14.38;4.70;;;;;;;;;;5096747;28;20384;-84
2022/01/15 04:55:15;;;;;;;13.13;4.32;;;;;;;;;;5096855;28;20433;-82
2022/01/15 04:57:42;;;;;;;15.77;4.85;;;;;;;;;;5097003;28;20040;-85
2022/01/15 05:00:10;;;;;;;13.70;4.80;;;;;;;;;;5096739;28;20404;-84
2022/01/15 05:02:36;;;;;;;12.07;4.72;;;;;;;;;;5096765;28;20040;-85
2022/01/15 05:05:03;;;;;;;12.18;4.38;;;;;;;;;;5096724;28;20087;-84
2022/01/15 05:07:29;;;;;;;12.93;4.18;;;;;;;;;;5096610;28;20036;-85
2022/01/15 05:09:55;;;;;;;12.23;4.38;;;;;;;;;;5095628;28;20048;-84
2022/01/15 05:12:56;;;;;;;12.38;4.78;;;;;;;;;;5109775;28;20432;-84
2022/01/15 05:15:14;;;;;;;11.05;4.43;;;;;;;;;;5114070;28;20047;-85
2022/01/15 05:17:41;;;;;;;14.85;4.85;;;;;;;;;;5099709;28;20058;-86
2022/01/15 05:20:06;;;;;;;;;;;;;;;;;;5117220;28;20503;-85
2022/01/15 05:22:34;;;;;;;14.98;5.10;;;;;;;;;;5117044;28;19926;-86
2022/01/15 05:25:00;;;;;;;14.25;5.28;;;;;;;;;;5116770;28;20086;-86
2022/01/15 05:27:26;;;;;;;17.50;5.68;;;;;;;;;;5116688;28;20104;-86
2022/01/15 05:29:52;;;;;;;13.85;5.03;;;;;;;;;;5116673;28;20078;-85
2022/01/15 05:32:19;;;;;;;14.82;5.38;;;;;;;;;;5116586;28;20176;-84
2022/01/15 05:34:45;;;;;;;;;;;;;;;;;;5116974;28;20051;-85
2022/01/15 05:37:11;;;;;;;14.05;5.15;;;;;;;;;;5132326;27;19968;-85
2022/01/15 05:39:37;;;;;;;13.60;5.20;;;;;;;;;;5117050;28;20083;-84
2022/01/15 05:42:04;;;;;;;15.10;5.50;;;;;;;;;;5116471;28;20039;-84
2022/01/15 05:44:30;;;;;;;15.02;5.40;;;;;;;;;;5116852;28;20090;-84
2022/01/15 05:46:56;;;;;;;13.93;5.53;;;;;;;;;;5115796;27;20429;-85
2022/01/15 05:49:22;;;;;;;15.27;5.20;;;;;;;;;;5116000;28;20429;-84
2022/01/15 05:51:48;;;;;;;14.75;6.07;;;;;;;;;;5116154;28;20091;-86
2022/01/15 05:54:14;;;;;;;15.07;6.03;;;;;;;;;;5116278;28;20054;-84
2022/01/15 05:56:41;;;;;;;13.00;5.30;;;;;;;;;;5098208;28;20432;-85
2022/01/15 05:59:07;;;;;;;;;;;;;;;;;;5117028;28;20047;-83
2022/01/15 06:01:34;;;;;;;16.98;6.30;;;;;;;;;;5107277;28;19980;-85
2022/01/15 06:04:00;;;;;;;15.50;5.80;;;;;;;;;;5120772;28;20031;-86
2022/01/15 06:06:26;;;;;;;18.58;6.70;;;;;;;;;;5134705;28;20047;-86
2022/01/15 06:08:52;;;;;;;16.67;6.10;;;;;;;;;;5128479;28;20047;-85
2022/01/15 06:11:18;;;;;;;18.33;6.30;;;;;;;;;;5098554;28;20412;-85
2022/01/15 06:13:48;;;;;;;16.00;6.32;;;;;;;;;;5075634;28;20549;-86
2022/01/15 06:16:14;;;;;;;16.67;6.60;;;;;;;;;;5074320;28;20048;-85
2022/01/15 06:18:41;;;;;;;14.93;6.13;;;;;;;;;;5074199;28;20130;-85
2022/01/15 06:21:07;;;;;;;17.58;6.00;;;;;;;;;;5075247;28;20072;-87
2022/01/15 06:23:34;;;;;;;15.38;6.63;;;;;;;;;;5074974;28;20052;-84
2022/01/15 06:26:00;;;;;;;17.63;6.35;;;;;;;;;;5075086;28;20127;-84
2022/01/15 06:28:26;;;;;;;15.85;6.63;;;;;;;;;;5075365;28;20102;-84
2022/01/15 06:30:52;;;;;;;14.40;6.10;;;;;;;;;;5074865;28;20048;-84
2022/01/15 06:33:18;;;;;;;14.93;6.10;;;;;;;;;;5074916;28;20044;-85
2022/01/15 06:35:45;;;;;;;15.55;5.90;;;;;;;;;;5073658;28;20080;-84
2022/01/15 06:38:11;;;;;;;14.23;6.43;;;;;;;;;;5074777;28;20079;-84
2022/01/15 06:40:37;;;;;;;17.58;7.13;;;;;;;;;;5074625;28;20080;-83
2022/01/15 06:43:05;;;;;;;15.48;6.97;;;;;;;;;;5074697;28;20498;-84
2022/01/15 06:45:32;;;;;;;22.88;7.97;;;;;;;;;;5074516;28;20053;-83
2022/01/15 06:47:58;;;;;;;;;;;;;;;;;;5073660;28;20128;-83
2022/01/15 06:50:25;;;;;;;16.42;6.85;;;;;;;;;;5074396;28;19971;-82
2022/01/15 06:52:51;;;;;;;15.70;6.50;;;;;;;;;;5074417;28;20067;-83
2022/01/15 06:55:17;;;;;;;;;;;;;;;;;;5074688;28;20060;-83
2022/01/15 06:57:44;;;;;;;17.50;7.25;;;;;;;;;;5074354;28;20261;-86
2022/01/15 07:00:11;;;;;;;19.17;7.20;;;;;;;;;;5074366;28;20520;-83
2022/01/15 07:02:37;;;;;;;19.27;6.75;;;;;;;;;;5073487;28;20464;-83
2022/01/15 07:05:04;;;;;;;17.10;6.95;;;;;;;;;;5074773;28;20044;-82
2022/01/15 07:07:30;;;;;;;14.77;5.85;;;;;;;;;;5073965;28;20044;-83
2022/01/15 07:09:56;;;;;;;16.15;6.65;;;;;;;;;;5075056;28;20063;-82
2022/01/15 07:12:23;;;;;;;15.30;5.25;;;;;;;;;;5099760;28;20067;-82
2022/01/15 07:14:49;;;;;;;16.13;5.90;;;;;;;;;;5115192;28;20060;-82
2022/01/15 07:17:15;;;;;;;14.98;5.60;;;;;;;;;;5115428;28;20075;-83
2022/01/15 07:19:41;;;;;;;15.35;6.05;;;;;;;;;;5114495;28;20126;-82
2022/01/15 07:22:08;;;;;;;15.00;5.38;;;;;;;;;;5114371;28;20090;-83
2022/01/15 07:24:34;;;;;;;16.27;5.70;;;;;;;;;;5114402;28;20048;-83
2022/01/15 07:27:00;;;;;;;16.15;5.50;;;;;;;;;;5096438;28;20100;-83
2022/01/15 07:29:29;;;;;;;15.57;5.30;;;;;;;;;;5114268;28;20108;-83
2022/01/15 07:31:55;;;;;;;13.15;5.30;;;;;;;;;;5114630;28;20051;-83
2022/01/15 07:34:21;;;;;;;14.57;5.60;;;;;;;;;;5096099;28;20048;-82
2022/01/15 07:36:56;;;;;;;13.88;5.13;;;;;;;;;;5096093;28;20107;-82
2022/01/15 07:39:22;;;;;;;13.85;5.30;;;;;;;;;;5113861;28;20058;-83
2022/01/15 07:41:48;;;;;;;15.75;5.70;;;;;;;;;;5096622;28;20039;-83
2022/01/15 07:44:16;;;;;;;13.30;5.95;;;;;;;;;;5095832;28;20083;-81
2022/01/15 07:46:42;;;;;;;14.77;6.00;;;;;;;;;;5114292;28;20137;-82
2022/01/15 07:49:08;;;;;;;15.38;6.00;;;;;;;;;;5114102;28;20055;-85
2022/01/15 07:51:34;;;;;;;14.70;6.00;;;;;;;;;;5114246;28;20051;-80
2022/01/15 07:54:00;;;;;;;15.40;6.47;;;;;;;;;;5114992;28;20062;-81
2022/01/15 07:56:26;;;;;;;16.75;7.00;;;;;;;;;;5115513;28;20044;-81
2022/01/15 07:58:53;;;;;;;16.23;6.72;;;;;;;;;;5098145;28;20079;-79
2022/01/15 08:01:19;;;;;;;17.75;6.95;;;;;;;;;;5119318;28;20063;-80
2022/01/15 08:03:48;;;;;;;16.20;6.45;;;;;;;;;;5129432;28;20063;-81
2022/01/15 08:06:14;;;;;;;16.80;6.72;;;;;;;;;;5104929;28;20055;-80
2022/01/15 08:08:45;;;;;;;17.05;6.70;;;;;;;;;;5116942;28;20092;-77
2022/01/15 08:11:11;;;;;;;17.23;6.28;;;;;;;;;;5114072;28;20459;-80
2022/01/15 08:13:37;;;;;;;15.32;6.28;;;;;;;;;;5112033;28;20048;-78
2022/01/15 08:16:04;;;;;;;15.55;6.47;;;;;;;;;;5114982;28;20107;-82
2022/01/15 08:18:31;;;;;;;14.73;5.40;;;;;;;;;;5099137;28;20441;-82
2022/01/15 08:20:58;;;;;;;16.05;5.82;;;;;;;;;;5116319;28;20130;-81
2022/01/15 08:23:24;;;;;;;15.82;6.05;;;;;;;;;;5116197;28;20105;-79
2022/01/15 08:25:50;;;;;;;14.95;6.25;;;;;;;;;;5116457;28;20039;-80
2022/01/15 08:28:17;;;;;;;15.73;5.60;;;;;;;;;;5116836;28;20096;-81
2022/01/15 08:30:44;;;;;;;15.32;5.57;;;;;;;;;;5115125;27;20056;-80
2022/01/15 08:33:10;;;;;;;14.88;5.88;;;;;;;;;;5115743;28;20121;-80
2022/01/15 08:35:36;;;;;;;15.15;6.00;;;;;;;;;;5098899;28;20360;-81
2022/01/15 08:38:11;;;;;;;14.35;5.90;;;;;;;;;;5116682;28;20176;-81
2022/01/15 08:40:37;;;;;;;15.27;5.97;;;;;;;;;;5115663;28;20048;-81
2022/01/15 08:43:04;;;;;;;14.40;5.88;;;;;;;;;;5115699;28;20140;-81
2022/01/15 08:45:30;;;;;;;15.13;5.53;;;;;;;;;;5115211;28;20055;-80
2022/01/15 08:47:56;;;;;;;15.20;6.05;;;;;;;;;;5097417;28;20138;-79
2022/01/15 08:50:23;;;;;;;22.20;6.45;;;;;;;;;;5113790;28;20127;-81
2022/01/15 08:52:49;;;;;;;15.07;6.20;;;;;;;;;;5114794;28;20062;-77
2022/01/15 08:55:15;;;;;;;15.75;6.20;;;;;;;;;;5097275;28;20050;-81
2022/01/15 08:57:42;;;;;;;13.68;5.63;;;;;;;;;;5114745;28;20059;-77
2022/01/15 09:00:10;;;;;;;15.10;6.32;;;;;;;;;;5115064;28;20411;-78
2022/01/15 09:02:36;;;;;;;16.98;6.85;;;;;;;;;;5115185;28;20216;-77
2022/01/15 09:05:05;;;;;;;15.38;6.00;;;;;;;;;;5115192;28;20073;-79
2022/01/15 09:07:31;;;;;;;14.15;5.68;;;;;;;;;;5116630;28;20040;-78
2022/01/15 09:09:57;;;;;;;16.60;6.50;;;;;;;;;;5115734;28;20099;-81
2022/01/15 09:12:23;;;;;;;17.15;5.82;;;;;;;;;;5110132;28;20055;-78
2022/01/15 09:14:52;;;;;;;16.25;5.45;;;;;;;;;;5094268;28;20090;-78
2022/01/15 09:17:19;;;;;;;16.40;5.53;;;;;;;;;;5092586;28;20056;-78
2022/01/15 09:19:45;;;;;;;16.83;5.38;;;;;;;;;;5126858;27;20083;-75
2022/01/15 09:22:11;;;;;;;13.77;5.60;;;;;;;;;;5126699;27;20488;-77
2022/01/15 09:24:37;;;;;;;;;;;;;;;;;;5093272;28;20058;-77
2022/01/15 09:30:12;;;;;;;11.65;4.30;;;;;;;;;;5126395;27;19936;-80
2022/01/15 09:32:34;;;;;;;13.10;4.82;;;;;;;;;;5094568;28;20056;-81
2022/01/15 09:35:01;;;;;;;12.02;4.55;;;;;;;;;;5094585;28;20040;-81
2022/01/15 09:37:28;;;;;;;12.85;4.65;;;;;;;;;;5127445;27;20052;-81
2022/01/15 09:39:54;;;;;;;11.65;4.65;;;;;;;;;;5092570;28;20052;-80
2022/01/15 09:42:22;;;;;;;12.20;4.85;;;;;;;;;;5094319;28;20076;-80
2022/01/15 09:44:48;;;;;;;15.25;5.55;;;;;;;;;;5093625;28;20543;-79
2022/01/15 09:47:16;;;;;;;12.80;4.82;;;;;;;;;;5094155;28;20429;-82
2022/01/15 09:49:43;;;;;;;13.57;4.97;;;;;;;;;;5092693;28;20488;-81
2022/01/15 09:52:09;;;;;;;14.70;5.13;;;;;;;;;;5098595;28;20055;-78
2022/01/15 09:54:36;;;;;;;14.40;5.72;;;;;;;;;;5110138;28;20123;-73
2022/01/15 09:57:02;;;;;;;19.50;7.88;;;;;;;;;;5101967;28;20040;-75
2022/01/15 09:59:28;;;;;;;17.90;7.88;;;;;;;;;;5077693;28;20047;-76
2022/01/15 10:01:54;;;;;;;20.92;8.23;;;;;;;;;;5093945;28;20040;-75
2022/01/15 10:04:20;;;;;;;22.45;8.90;;;;;;;;;;5126820;27;20468;-73
2022/01/15 10:07:05;;;;;;;22.55;9.98;;;;;;;;;;5127060;27;20048;-81
2022/01/15 10:09:31;;;;;;;24.17;10.30;;;;;;;;;;5092777;28;20059;-81
2022/01/15 10:11:57;;;;;;;22.38;9.68;;;;;;;;;;5098934;28;20059;-80
2022/01/15 10:14:37;;;;;;;23.40;10.18;;;;;;;;;;5114005;28;20051;-79
2022/01/15 10:17:05;;;;;;;23.83;11.00;;;;;;;;;;5114640;28;20056;-80
2022/01/15 10:19:33;;;;;;;26.88;11.10;;;;;;;;;;5113818;28;20051;-84
2022/01/15 10:22:06;;;;;;;25.83;11.32;;;;;;;;;;5114420;28;20055;-83
2022/01/15 10:24:32;;;;;;;24.23;11.20;;;;;;;;;;5095311;28;20055;-71
2022/01/15 10:27:17;;;;;;;24.48;11.10;;;;;;;;;;5113465;28;20047;-81
2022/01/15 10:29:48;;;;;;;22.83;10.80;;;;;;;;;;5113444;28;20054;-83
2022/01/15 10:32:14;;;;;;;21.70;10.52;;;;;;;;;;5113348;28;20044;-79
2022/01/15 10:34:41;;;;;;;;;;;;;;;;;;5095539;28;20044;-77
2022/01/15 10:37:08;;;;;;;26.08;11.73;;;;;;;;;;5111218;28;19919;-76
2022/01/15 10:39:34;;;;;;;26.92;11.50;;;;;;;;;;5112983;28;20066;-77
2022/01/15 10:42:01;;;;;;;29.23;12.93;;;;;;;;;;5112764;28;20040;-78
2022/01/15 10:44:28;;;;;;;28.65;12.82;;;;;;;;;;5112897;28;20433;-77
2022/01/15 10:47:01;;;;;;;26.85;12.77;;;;;;;;;;5113362;28;20194;-77
2022/01/15 10:49:27;;;;;;;26.33;12.80;;;;;;;;;;5113185;28;20479;-74
2022/01/15 10:52:05;;;;;;;28.83;13.45;;;;;;;;;;5094845;28;20051;-76
2022/01/15 10:54:31;;;;;;;27.63;12.52;;;;;;;;;;5113051;28;20048;-78
2022/01/15 10:57:10;;;;;;;22.83;10.35;;;;;;;;;;5113085;28;20055;-78
2022/01/15 10:59:37;;;;;;;24.52;11.02;;;;;;;;;;5128854;27;20044;-78
2022/01/15 11:02:03;;;;;;;;;;;;;;;;;;5113219;28;20498;-77
2022/01/15 11:04:35;;;;;;;24.52;11.60;;;;;;;;;;5111626;28;20374;-78
2022/01/15 11:07:11;;;;;;;23.33;10.65;;;;;;;;;;5112413;28;20510;-76
2022/01/15 11:09:37;;;;;;;26.63;11.68;;;;;;;;;;5094697;28;20039;-74
2022/01/15 11:12:04;;;;;;;26.25;11.82;;;;;;;;;;5118834;27;20202;-75
2022/01/15 11:14:33;;;;;;;27.38;13.00;;;;;;;;;;5072868;28;20074;-75
2022/01/15 11:17:00;;;;;;;28.88;13.75;;;;;;;;;;5071117;28;20040;-83
2022/01/15 11:19:28;;;;;;;29.60;14.30;;;;;;;;;;5072111;28;20056;-76
2022/01/15 11:21:54;;;;;;;30.92;13.80;;;;;;;;;;5071935;28;20131;-76
2022/01/15 11:24:20;;;;;;;;;;;;;;;;;;5072023;28;20048;-78
2022/01/15 11:26:47;;;;;;;30.63;13.63;;;;;;;;;;5072163;28;19927;-78
2022/01/15 11:29:14;;;;;;;28.23;12.85;;;;;;;;;;5071959;28;20139;-77
2022/01/15 11:31:41;;;;;;;31.10;13.40;;;;;;;;;;5071890;28;20396;-76
2022/01/15 11:34:09;;;;;;;28.55;14.23;;;;;;;;;;5072069;28;20048;-72
2022/01/15 11:36:36;;;;;;;28.67;13.05;;;;;;;;;;5072457;28;20041;-76
2022/01/15 11:39:04;;;;;;;29.52;13.23;;;;;;;;;;5073044;28;20040;-81
2022/01/15 11:41:30;;;;;;;28.85;13.68;;;;;;;;;;5072113;28;20044;-76
2022/01/15 11:44:00;;;;;;;31.70;15.35;;;;;;;;;;5075334;28;20514;-69
2022/01/15 11:46:31;;;;;;;28.52;13.40;;;;;;;;;;5082435;28;20439;-71
2022/01/15 11:49:15;;;;;;;28.17;13.32;;;;;;;;;;5077738;28;20051;-73
2022/01/15 11:51:41;;;;;;;30.05;14.57;;;;;;;;;;5072508;28;20048;-71
2022/01/15 11:54:11;;;;;;;35.65;14.63;;;;;;;;;;5071960;28;20044;-75
2022/01/15 11:56:38;;;;;;;31.45;14.73;;;;;;;;;;5071907;28;20135;-79
2022/01/15 11:59:23;;;;;;;30.80;14.32;;;;;;;;;;5070913;28;20091;-76
2022/01/15 12:01:50;;;;;;;32.78;14.65;;;;;;;;;;5072118;28;20056;-75
2022/01/15 12:04:24;;;;;;;39.03;15.95;;;;;;;;;;5071245;28;20044;-74
2022/01/15 12:07:11;;;;;;;35.47;15.65;;;;;;;;;;5053564;28;20140;-77
2022/01/15 12:09:50;;;;;;;34.22;15.90;;;;;;;;;;5076809;28;20234;-74
2022/01/15 12:12:19;;;;;;;37.33;17.80;;;;;;;;;;5085745;28;20059;-75
2022/01/15 12:14:49;;;;;;;33.33;17.05;;;;;;;;;;5112257;28;20058;-87
2022/01/15 12:17:24;;;;;;;36.85;17.15;;;;;;;;;;5112492;28;20115;-83
2022/01/15 12:19:51;;;;;;;39.90;18.95;;;;;;;;;;5127671;28;20054;-74
2022/01/15 12:22:17;;;;;;;;;;;;;;;;;;5111586;28;20097;-71
2022/01/15 12:24:50;;;;;;;37.47;18.88;;;;;;;;;;5111950;28;19920;-73
2022/01/15 12:27:20;;;;;;;37.60;18.60;;;;;;;;;;5112094;28;20391;-78
2022/01/15 12:29:47;;;;;;;35.80;17.98;;;;;;;;;;5111018;28;20459;-84
2022/01/15 12:32:29;;;;;;;38.95;19.17;;;;;;;;;;5127280;28;20558;-78
2022/01/15 12:34:56;;;;;;;40.53;19.77;;;;;;;;;;5093873;28;20066;-79
2022/01/15 12:37:22;;;;;;;38.70;19.45;;;;;;;;;;5112348;28;20043;-87
2022/01/15 12:39:52;;;;;;;40.55;20.27;;;;;;;;;;5093811;28;20380;-78
2022/01/15 12:42:18;;;;;;;39.78;20.25;;;;;;;;;;5094023;28;20090;-79
2022/01/15 12:44:47;;;;;;;44.50;20.27;;;;;;;;;;5110837;28;20379;-79
2022/01/15 12:47:13;;;;;;;39.30;20.55;;;;;;;;;;5111774;28;20042;-77
2022/01/15 12:49:41;;;;;;;40.83;21.08;;;;;;;;;;5111928;28;20040;-81
2022/01/15 12:52:07;;;;;;;42.58;21.27;;;;;;;;;;5093781;28;20044;-72
2022/01/15 12:54:33;;;;;;;42.90;21.35;;;;;;;;;;5112143;28;20043;-73
2022/01/15 12:57:00;;;;;;;41.00;20.23;;;;;;;;;;5111600;28;20048;-73
2022/01/15 12:59:28;;;;;;;40.65;21.10;;;;;;;;;;5112142;28;20044;-73
2022/01/15 13:01:55;;;;;;;41.47;21.30;;;;;;;;;;5113953;28;20043;-69
2022/01/15 13:04:21;;;;;;;44.28;22.70;;;;;;;;;;5115990;28;20216;-76
2022/01/15 13:06:50;;;;;;;42.53;21.88;;;;;;;;;;5115382;28;20051;-73
2022/01/15 13:09:17;;;;;;;39.20;19.85;;;;;;;;;;5114764;28;20040;-69
2022/01/15 13:11:48;;;;;;;42.15;20.75;;;;;;;;;;5096961;28;20047;-75
2022/01/15 13:14:15;;;;;;;41.35;21.40;;;;;;;;;;5115851;28;20047;-75
2022/01/15 13:16:41;;;;;;;;;;;;;;;;;;5115400;28;20046;-74
2022/01/15 13:19:08;;;;;;;47.80;22.75;;;;;;;;;;5096764;28;19919;-74
2022/01/15 13:21:35;;;;;;;47.40;23.40;;;;;;;;;;5130695;27;20488;-74
2022/01/15 13:24:11;;;;;;;49.72;23.60;;;;;;;;;;5114983;28;20083;-75
2022/01/15 13:26:38;;;;;;;49.42;23.95;;;;;;;;;;5115191;28;20052;-73
2022/01/15 13:29:06;;;;;;;53.00;27.58;;;;;;;;;;5130895;27;20131;-73
2022/01/15 13:31:35;;;;;;;50.78;23.85;;;;;;;;;;5114908;28;20570;-74
2022/01/15 13:34:09;;;;;;;53.95;26.98;;;;;;;;;;5114805;28;20096;-74
2022/01/15 13:36:35;;;;;;;51.47;25.35;;;;;;;;;;5130563;27;20126;-74
2022/01/15 13:39:02;;;;;;;52.85;24.73;;;;;;;;;;5114754;28;20123;-79
2022/01/15 13:41:31;;;;;;;53.17;25.10;;;;;;;;;;5115498;28;20084;-80
2022/01/15 13:43:57;;;;;;;53.90;26.95;;;;;;;;;;5114845;28;20500;-76
2022/01/15 13:46:34;;;;;;;49.80;24.23;;;;;;;;;;5107784;28;20181;-75
2022/01/15 13:49:00;;;;;;;;;;;;;;;;;;5128413;28;20044;-74
2022/01/15 13:54:16;;;;;;;56.72;27.80;;;;;;;;;;5115372;28;20510;-81
2022/01/15 13:56:52;;;;;;;50.55;25.13;;;;;;;;;;5114284;28;20138;-77
2022/01/15 13:59:18;;;;;;;53.70;26.60;;;;;;;;;;5096731;28;20064;-78
2022/01/15 14:01:44;;;;;;;;;;;;;;;;;;5114512;28;20040;-79
2022/01/15 14:04:27;;;;;;;53.97;26.13;;;;;;;;;;5129555;27;19973;-78
2022/01/15 14:07:03;;;;;;;52.67;26.13;;;;;;;;;;5114034;28;20056;-71
2022/01/15 14:09:30;;;;;;;55.17;27.93;;;;;;;;;;5114814;28;20050;-71
2022/01/15 14:12:13;;;;;;;49.70;24.48;;;;;;;;;;5111503;28;20097;-74
2022/01/15 14:14:54;;;;;;;54.35;27.77;;;;;;;;;;5130109;27;20134;-75
2022/01/15 14:17:24;;;;;;;52.45;26.73;;;;;;;;;;5113738;28;20132;-76
2022/01/15 14:22:43;;;;;;;53.65;26.63;;;;;;;;;;5130094;27;20184;-73
2022/01/15 14:25:22;;;;;;;51.97;25.77;;;;;;;;;;5131496;27;20043;-75
2022/01/15 14:28:03;;;;;;;59.13;27.00;;;;;;;;;;5113575;28;20463;-75
2022/01/15 14:30:30;;;;;;;54.00;25.35;;;;;;;;;;5114349;28;20049;-75
2022/01/15 14:32:56;;;;;;;;;;;;;;;;;;5114532;28;20043;-74
2022/01/15 14:35:25;;;;;;;56.33;26.27;;;;;;;;;;5095978;28;19925;-75
2022/01/15 14:37:52;;;;;;;54.33;26.85;;;;;;;;;;5113755;28;20083;-75
2022/01/15 14:40:18;;;;;;;56.70;25.77;;;;;;;;;;5114248;28;20230;-75
2022/01/15 14:42:44;;;;;;;59.20;26.23;;;;;;;;;;5113593;28;20055;-80
2022/01/15 14:45:10;;;;;;;55.78;25.75;;;;;;;;;;5113487;28;20050;-74
2022/01/15 14:47:36;;;;;;;59.17;29.13;;;;;;;;;;5113320;28;20091;-77
2022/01/15 14:50:03;;;;;;;58.13;26.67;;;;;;;;;;5113360;28;20087;-74
2022/01/15 14:52:30;;;;;;;67.03;29.80;;;;;;;;;;5113639;28;20116;-74
2022/01/15 14:54:56;;;;;;;59.65;28.15;;;;;;;;;;5112599;27;20052;-77
2022/01/15 14:57:25;;;;;;;56.05;26.67;;;;;;;;;;5094861;28;20476;-76
2022/01/15 14:59:51;;;;;;;55.83;26.13;;;;;;;;;;5113090;28;20055;-76
2022/01/15 15:02:17;;;;;;;55.58;26.73;;;;;;;;;;5094783;28;20475;-77
2022/01/15 15:04:43;;;;;;;55.47;27.85;;;;;;;;;;5095039;28;20047;-77